sensor_id;sensor_type;location;lat;lon;timestamp;pressure;altitude;pressure_sealevel;temperature;humidity
61900;BME280;47853;55.890;37.664;2022-08-20T00:00:42;100418.47;;;18.17;46.02
61900;BME280;47853;55.890;37.664;2022-08-20T00:03:13;100382.56;;;18.03;46.34
61900;BME280;47853;55.890;37.664;2022-08-20T00:05:43;100405.31;;;18.01;46.39
61900;BME280;47853;55.890;37.664;2022-08-20T00:08:09;100370.06;;;17.74;46.80
61900;BME280;47853;55.890;37.664;2022-08-20T00:10:37;100393.09;;;17.83;46.95
61900;BME280;47853;55.890;37.664;2022-08-20T00:13:05;100415.47;;;18.05;47.23
61900;BME280;47853;55.890;37.664;2022-08-20T00:15:33;100408.69;;;18.09;47.01
61900;BME280;47853;55.890;37.664;2022-08-20T00:17:59;100344.03;;;17.52;47.50
61900;BME280;47853;55.890;37.664;2022-08-20T00:20:27;100402.91;;;17.91;47.75
61900;BME280;47853;55.890;37.664;2022-08-20T00:22:54;100393.72;;;17.85;47.73
61900;BME280;47853;55.890;37.664;2022-08-20T00:25:19;100406.44;;;17.91;47.64
61900;BME280;47853;55.890;37.664;2022-08-20T00:27:45;100379.22;;;17.79;47.76
61900;BME280;47853;55.890;37.664;2022-08-20T00:30:12;100350.28;;;17.60;47.95
61900;BME280;47853;55.890;37.664;2022-08-20T00:32:51;100394.84;;;17.91;47.75
61900;BME280;47853;55.890;37.664;2022-08-20T00:35:20;100405.75;;;17.89;48.19
61900;BME280;47853;55.890;37.664;2022-08-20T00:37:46;100391.22;;;17.62;48.65
61900;BME280;47853;55.890;37.664;2022-08-20T00:40:15;100404.19;;;17.73;48.92
61900;BME280;47853;55.890;37.664;2022-08-20T00:42:43;100412.50;;;17.78;49.02
61900;BME280;47853;55.890;37.664;2022-08-20T00:45:09;100423.41;;;17.77;48.91
61900;BME280;47853;55.890;37.664;2022-08-20T00:47:35;100387.38;;;17.49;49.33
61900;BME280;47853;55.890;37.664;2022-08-20T00:50:01;100414.38;;;17.63;49.49
61900;BME280;47853;55.890;37.664;2022-08-20T00:52:27;100417.16;;;17.54;49.86
61900;BME280;47853;55.890;37.664;2022-08-20T00:54:55;100422.63;;;17.61;49.73
61900;BME280;47853;55.890;37.664;2022-08-20T00:59:51;100432.56;;;17.46;50.51
61900;BME280;47853;55.890;37.664;2022-08-20T01:02:18;100423.28;;;17.48;50.64
61900;BME280;47853;55.890;37.664;2022-08-20T01:04:46;100422.66;;;17.31;50.88
61900;BME280;47853;55.890;37.664;2022-08-20T01:07:11;100399.53;;;17.00;51.44
61900;BME280;47853;55.890;37.664;2022-08-20T01:09:38;100370.09;;;16.92;51.63
61900;BME280;47853;55.890;37.664;2022-08-20T01:12:05;100428.31;;;17.21;51.65
61900;BME280;47853;55.890;37.664;2022-08-20T01:14:31;100407.59;;;17.00;52.21
61900;BME280;47853;55.890;37.664;2022-08-20T01:17:00;100426.56;;;17.14;51.99
61900;BME280;47853;55.890;37.664;2022-08-20T01:19:37;100395.19;;;17.14;51.83
61900;BME280;47853;55.890;37.664;2022-08-20T01:22:04;100409.78;;;16.96;52.34
61900;BME280;47853;55.890;37.664;2022-08-20T01:24:37;100424.81;;;17.06;52.54
61900;BME280;47853;55.890;37.664;2022-08-20T01:27:06;100428.88;;;17.02;52.64
61900;BME280;47853;55.890;37.664;2022-08-20T01:29:36;100405.03;;;16.68;53.15
61900;BME280;47853;55.890;37.664;2022-08-20T01:32:04;100428.75;;;16.80;52.89
61900;BME280;47853;55.890;37.664;2022-08-20T01:34:29;100427.53;;;16.82;53.27
61900;BME280;47853;55.890;37.664;2022-08-20T01:36:56;100427.25;;;16.77;53.33
61900;BME280;47853;55.890;37.664;2022-08-20T01:39:25;100439.25;;;16.66;53.56
61900;BME280;47853;55.890;37.664;2022-08-20T01:44:38;100424.75;;;16.61;53.72
61900;BME280;47853;55.890;37.664;2022-08-20T01:47:13;100425.16;;;16.49;54.03
61900;BME280;47853;55.890;37.664;2022-08-20T01:49:44;100429.16;;;16.53;54.11
61900;BME280;47853;55.890;37.664;2022-08-20T01:52:14;100436.81;;;16.57;53.95
61900;BME280;47853;55.890;37.664;2022-08-20T01:54:43;100415.53;;;16.40;53.86
61900;BME280;47853;55.890;37.664;2022-08-20T01:57:15;100407.50;;;16.40;54.08
61900;BME280;47853;55.890;37.664;2022-08-20T01:59:42;100433.91;;;16.66;54.05
61900;BME280;47853;55.890;37.664;2022-08-20T02:02:09;100410.47;;;16.45;54.07
61900;BME280;47853;55.890;37.664;2022-08-20T02:04:35;100427.13;;;16.56;53.95
61900;BME280;47853;55.890;37.664;2022-08-20T02:07:03;100432.78;;;16.61;54.25
61900;BME280;47853;55.890;37.664;2022-08-20T02:09:32;100416.53;;;16.39;54.33
61900;BME280;47853;55.890;37.664;2022-08-20T02:11:58;100423.69;;;16.47;54.34
61900;BME280;47853;55.890;37.664;2022-08-20T02:14:25;100446.31;;;16.44;54.30
61900;BME280;47853;55.890;37.664;2022-08-20T02:16:50;100435.34;;;16.54;54.22
61900;BME280;47853;55.890;37.664;2022-08-20T02:19:23;100441.59;;;16.46;54.50
61900;BME280;47853;55.890;37.664;2022-08-20T02:21:53;100446.31;;;16.44;54.26
61900;BME280;47853;55.890;37.664;2022-08-20T02:24:20;100413.00;;;16.23;54.38
61900;BME280;47853;55.890;37.664;2022-08-20T02:26:46;100439.72;;;16.32;54.65
61900;BME280;47853;55.890;37.664;2022-08-20T02:29:12;100443.94;;;16.26;55.00
61900;BME280;47853;55.890;37.664;2022-08-20T02:31:40;100449.66;;;16.23;55.15
61900;BME280;47853;55.890;37.664;2022-08-20T02:34:07;100450.16;;;16.27;55.02
61900;BME280;47853;55.890;37.664;2022-08-20T02:36:33;100419.78;;;16.11;55.07
61900;BME280;47853;55.890;37.664;2022-08-20T02:38:58;100440.16;;;16.20;54.85
61900;BME280;47853;55.890;37.664;2022-08-20T02:41:23;100449.38;;;16.18;55.13
61900;BME280;47853;55.890;37.664;2022-08-20T02:43:50;100450.31;;;16.25;54.96
61900;BME280;47853;55.890;37.664;2022-08-20T02:46:17;100431.56;;;16.25;55.00
61900;BME280;47853;55.890;37.664;2022-08-20T02:48:42;100434.50;;;16.15;54.85
61900;BME280;47853;55.890;37.664;2022-08-20T02:51:08;100455.09;;;16.38;54.71
61900;BME280;47853;55.890;37.664;2022-08-20T02:53:36;100446.88;;;16.16;55.01
61900;BME280;47853;55.890;37.664;2022-08-20T02:56:05;100461.03;;;16.48;54.50
61900;BME280;47853;55.890;37.664;2022-08-20T02:58:31;100435.69;;;16.13;55.10
61900;BME280;47853;55.890;37.664;2022-08-20T03:00:57;100456.69;;;16.24;55.29
61900;BME280;47853;55.890;37.664;2022-08-20T03:03:24;100455.09;;;16.15;55.60
61900;BME280;47853;55.890;37.664;2022-08-20T03:05:54;100463.00;;;16.31;55.35
61900;BME280;47853;55.890;37.664;2022-08-20T03:08:21;100467.72;;;16.29;55.57
61900;BME280;47853;55.890;37.664;2022-08-20T03:10:48;100457.63;;;16.08;55.81
61900;BME280;47853;55.890;37.664;2022-08-20T03:13:15;100441.81;;;15.98;56.26
61900;BME280;47853;55.890;37.664;2022-08-20T03:15:45;100468.13;;;16.18;56.08
61900;BME280;47853;55.890;37.664;2022-08-20T03:18:11;100455.44;;;16.12;56.30
61900;BME280;47853;55.890;37.664;2022-08-20T03:20:37;100435.25;;;16.01;56.14
61900;BME280;47853;55.890;37.664;2022-08-20T03:23:03;100473.03;;;16.14;56.61
61900;BME280;47853;55.890;37.664;2022-08-20T03:25:28;100459.94;;;16.19;56.32
61900;BME280;47853;55.890;37.664;2022-08-20T03:27:55;100457.84;;;16.30;56.31
61900;BME280;47853;55.890;37.664;2022-08-20T03:30:23;100475.88;;;16.36;56.23
61900;BME280;47853;55.890;37.664;2022-08-20T03:32:48;100468.84;;;16.35;56.05
61900;BME280;47853;55.890;37.664;2022-08-20T03:35:16;100468.78;;;16.20;56.99
61900;BME280;47853;55.890;37.664;2022-08-20T03:37:42;100454.72;;;15.94;57.23
61900;BME280;47853;55.890;37.664;2022-08-20T03:40:11;100475.16;;;16.19;57.42
61900;BME280;47853;55.890;37.664;2022-08-20T03:42:37;100474.09;;;16.28;57.07
61900;BME280;47853;55.890;37.664;2022-08-20T03:45:03;100475.28;;;16.26;56.82
61900;BME280;47853;55.890;37.664;2022-08-20T03:47:28;100469.34;;;16.15;57.40
61900;BME280;47853;55.890;37.664;2022-08-20T03:49:58;100466.00;;;16.13;57.49
61900;BME280;47853;55.890;37.664;2022-08-20T03:52:23;100485.81;;;16.27;57.56
61900;BME280;47853;55.890;37.664;2022-08-20T03:54:48;100446.09;;;16.31;57.09
61900;BME280;47853;55.890;37.664;2022-08-20T03:57:15;100468.34;;;16.55;56.43
61900;BME280;47853;55.890;37.664;2022-08-20T03:59:42;100468.31;;;16.40;56.81
61900;BME280;47853;55.890;37.664;2022-08-20T04:02:08;100470.22;;;16.31;57.36
61900;BME280;47853;55.890;37.664;2022-08-20T04:04:33;100477.06;;;16.33;57.21
61900;BME280;47853;55.890;37.664;2022-08-20T04:06:59;100451.75;;;16.13;57.28
61900;BME280;47853;55.890;37.664;2022-08-20T04:09:24;100467.41;;;16.24;57.59
61900;BME280;47853;55.890;37.664;2022-08-20T04:11:50;100487.19;;;16.46;57.30
61900;BME280;47853;55.890;37.664;2022-08-20T04:14:15;100486.47;;;16.52;57.13
61900;BME280;47853;55.890;37.664;2022-08-20T04:16:40;100459.56;;;16.46;56.91
61900;BME280;47853;55.890;37.664;2022-08-20T04:19:06;100485.69;;;16.67;56.64
61900;BME280;47853;55.890;37.664;2022-08-20T04:21:33;100452.16;;;16.48;56.27
61900;BME280;47853;55.890;37.664;2022-08-20T04:24:02;100475.25;;;16.72;55.89
61900;BME280;47853;55.890;37.664;2022-08-20T04:26:28;100471.44;;;16.66;56.00
61900;BME280;47853;55.890;37.664;2022-08-20T04:28:54;100464.59;;;16.79;55.84
61900;BME280;47853;55.890;37.664;2022-08-20T04:31:19;100439.94;;;16.84;55.28
61900;BME280;47853;55.890;37.664;2022-08-20T04:33:45;100449.19;;;16.96;54.90
61900;BME280;47853;55.890;37.664;2022-08-20T04:36:10;100452.25;;;16.93;54.57
61900;BME280;47853;55.890;37.664;2022-08-20T04:38:36;100446.72;;;16.94;54.45
61900;BME280;47853;55.890;37.664;2022-08-20T04:41:01;100481.06;;;17.14;54.75
61900;BME280;47853;55.890;37.664;2022-08-20T04:43:35;100473.41;;;17.41;54.41
61900;BME280;47853;55.890;37.664;2022-08-20T04:46:07;100470.44;;;17.51;53.41
61900;BME280;47853;55.890;37.664;2022-08-20T04:48:32;100474.47;;;17.62;52.88
61900;BME280;47853;55.890;37.664;2022-08-20T04:50:58;100474.84;;;17.74;52.73
61900;BME280;47853;55.890;37.664;2022-08-20T04:53:26;100462.53;;;17.64;52.51
61900;BME280;47853;55.890;37.664;2022-08-20T04:55:54;100464.34;;;17.79;52.05
61900;BME280;47853;55.890;37.664;2022-08-20T04:58:26;100473.13;;;18.03;51.17
61900;BME280;47853;55.890;37.664;2022-08-20T05:00:54;100456.63;;;17.91;50.58
61900;BME280;47853;55.890;37.664;2022-08-20T05:03:21;100449.72;;;17.81;51.08
61900;BME280;47853;55.890;37.664;2022-08-20T05:05:48;100468.22;;;17.91;51.56
61900;BME280;47853;55.890;37.664;2022-08-20T05:08:15;100451.03;;;18.07;49.85
61900;BME280;47853;55.890;37.664;2022-08-20T05:10:42;100440.06;;;18.24;49.78
61900;BME280;47853;55.890;37.664;2022-08-20T05:13:08;100471.66;;;18.65;48.89
61900;BME280;47853;55.890;37.664;2022-08-20T05:15:34;100431.72;;;18.97;47.89
61900;BME280;47853;55.890;37.664;2022-08-20T05:18:01;100466.16;;;19.37;46.41
61900;BME280;47853;55.890;37.664;2022-08-20T05:20:27;100459.25;;;19.77;45.97
61900;BME280;47853;55.890;37.664;2022-08-20T05:25:18;100476.44;;;20.92;42.63
61900;BME280;47853;55.890;37.664;2022-08-20T05:27:43;100475.63;;;20.91;42.12
61900;BME280;47853;55.890;37.664;2022-08-20T05:30:10;100451.31;;;20.44;43.03
61900;BME280;47853;55.890;37.664;2022-08-20T05:32:36;100460.56;;;19.94;43.93
61900;BME280;47853;55.890;37.664;2022-08-20T05:35:04;100474.81;;;19.81;44.07
61900;BME280;47853;55.890;37.664;2022-08-20T05:37:30;100463.13;;;20.23;43.25
61900;BME280;47853;55.890;37.664;2022-08-20T05:39:55;100465.44;;;20.60;43.12
61900;BME280;47853;55.890;37.664;2022-08-20T05:42:21;100459.81;;;20.61;43.09
61900;BME280;47853;55.890;37.664;2022-08-20T05:44:46;100467.31;;;20.79;41.82
61900;BME280;47853;55.890;37.664;2022-08-20T05:47:12;100465.22;;;21.61;40.74
61900;BME280;47853;55.890;37.664;2022-08-20T05:49:38;100459.94;;;21.34;40.68
61900;BME280;47853;55.890;37.664;2022-08-20T05:52:03;100481.63;;;20.53;41.96
61900;BME280;47853;55.890;37.664;2022-08-20T05:54:32;100441.25;;;19.84;42.82
61900;BME280;47853;55.890;37.664;2022-08-20T05:56:57;100483.44;;;20.12;43.53
61900;BME280;47853;55.890;37.664;2022-08-20T05:59:24;100482.41;;;20.20;43.49
61900;BME280;47853;55.890;37.664;2022-08-20T06:01:50;100483.91;;;20.76;42.44
61900;BME280;47853;55.890;37.664;2022-08-20T06:04:16;100480.53;;;21.28;40.27
61900;BME280;47853;55.890;37.664;2022-08-20T06:06:41;100471.00;;;21.84;38.96
61900;BME280;47853;55.890;37.664;2022-08-20T06:09:07;100472.78;;;22.29;38.57
61900;BME280;47853;55.890;37.664;2022-08-20T06:11:32;100462.28;;;21.82;39.63
61900;BME280;47853;55.890;37.664;2022-08-20T06:13:58;100478.91;;;21.13;40.85
61900;BME280;47853;55.890;37.664;2022-08-20T06:16:24;100497.84;;;21.00;41.16
61900;BME280;47853;55.890;37.664;2022-08-20T06:18:50;100474.38;;;20.80;41.36
61900;BME280;47853;55.890;37.664;2022-08-20T06:21:15;100472.91;;;20.78;42.00
61900;BME280;47853;55.890;37.664;2022-08-20T06:23:41;100456.31;;;20.88;41.94
61900;BME280;47853;55.890;37.664;2022-08-20T06:26:06;100494.94;;;20.88;41.56
61900;BME280;47853;55.890;37.664;2022-08-20T06:28:32;100496.78;;;20.67;39.54
61900;BME280;47853;55.890;37.664;2022-08-20T06:30:57;100473.31;;;20.41;39.48
61900;BME280;47853;55.890;37.664;2022-08-20T06:33:25;100475.94;;;20.00;40.10
61900;BME280;47853;55.890;37.664;2022-08-20T06:35:51;100477.59;;;19.95;40.19
61900;BME280;47853;55.890;37.664;2022-08-20T06:38:16;100498.97;;;20.03;40.09
61900;BME280;47853;55.890;37.664;2022-08-20T06:40:43;100459.34;;;19.97;40.47
61900;BME280;47853;55.890;37.664;2022-08-20T06:43:08;100477.34;;;19.90;40.44
61900;BME280;47853;55.890;37.664;2022-08-20T06:45:34;100484.56;;;19.82;41.07
61900;BME280;47853;55.890;37.664;2022-08-20T06:48:06;100481.56;;;19.57;41.69
61900;BME280;47853;55.890;37.664;2022-08-20T06:50:38;100487.78;;;19.58;41.73
61900;BME280;47853;55.890;37.664;2022-08-20T06:53:05;100488.94;;;19.41;41.76
61900;BME280;47853;55.890;37.664;2022-08-20T06:55:31;100464.03;;;19.26;41.45
61900;BME280;47853;55.890;37.664;2022-08-20T06:58:01;100465.84;;;19.61;41.03
61900;BME280;47853;55.890;37.664;2022-08-20T07:00:29;100481.03;;;19.82;41.48
61900;BME280;47853;55.890;37.664;2022-08-20T07:02:55;100471.78;;;20.05;40.90
61900;BME280;47853;55.890;37.664;2022-08-20T07:05:21;100467.47;;;20.10;40.43
61900;BME280;47853;55.890;37.664;2022-08-20T07:07:47;100469.38;;;20.37;40.53
61900;BME280;47853;55.890;37.664;2022-08-20T07:10:14;100462.09;;;20.17;40.54
61900;BME280;47853;55.890;37.664;2022-08-20T07:12:40;100435.75;;;20.26;40.90
61900;BME280;47853;55.890;37.664;2022-08-20T07:15:08;100449.44;;;20.51;40.56
61900;BME280;47853;55.890;37.664;2022-08-20T07:17:35;100472.00;;;21.31;39.75
61900;BME280;47853;55.890;37.664;2022-08-20T07:20:05;100467.19;;;21.40;38.74
61900;BME280;47853;55.890;37.664;2022-08-20T07:22:30;100451.69;;;21.15;39.71
61900;BME280;47853;55.890;37.664;2022-08-20T07:24:56;100467.63;;;21.30;38.84
61900;BME280;47853;55.890;37.664;2022-08-20T07:27:22;100432.22;;;20.59;40.02
61900;BME280;47853;55.890;37.664;2022-08-20T07:29:48;100446.13;;;20.49;39.98
61900;BME280;47853;55.890;37.664;2022-08-20T07:32:15;100444.47;;;21.02;39.84
61900;BME280;47853;55.890;37.664;2022-08-20T07:34:40;100446.75;;;20.92;40.25
61900;BME280;47853;55.890;37.664;2022-08-20T07:37:06;100453.75;;;21.13;39.37
61900;BME280;47853;55.890;37.664;2022-08-20T07:39:31;100436.00;;;21.51;39.65
61900;BME280;47853;55.890;37.664;2022-08-20T07:41:56;100449.63;;;22.08;38.40
61900;BME280;47853;55.890;37.664;2022-08-20T07:44:22;100419.38;;;21.86;38.32
61900;BME280;47853;55.890;37.664;2022-08-20T07:46:47;100461.44;;;22.14;38.24
61900;BME280;47853;55.890;37.664;2022-08-20T07:49:12;100456.50;;;21.72;38.95
61900;BME280;47853;55.890;37.664;2022-08-20T07:51:40;100460.44;;;21.76;39.23
61900;BME280;47853;55.890;37.664;2022-08-20T07:54:06;100459.38;;;21.77;38.81
61900;BME280;47853;55.890;37.664;2022-08-20T07:56:31;100433.56;;;21.81;38.23
61900;BME280;47853;55.890;37.664;2022-08-20T07:58:58;100462.59;;;21.54;39.01
61900;BME280;47853;55.890;37.664;2022-08-20T08:01:26;100461.44;;;21.23;39.52
61900;BME280;47853;55.890;37.664;2022-08-20T08:03:52;100446.78;;;20.85;39.55
61900;BME280;47853;55.890;37.664;2022-08-20T08:06:20;100442.63;;;20.55;40.51
61900;BME280;47853;55.890;37.664;2022-08-20T08:08:46;100440.31;;;20.66;40.57
61900;BME280;47853;55.890;37.664;2022-08-20T08:11:12;100439.91;;;20.69;40.64
61900;BME280;47853;55.890;37.664;2022-08-20T08:13:39;100450.69;;;20.96;40.56
61900;BME280;47853;55.890;37.664;2022-08-20T08:16:06;100454.56;;;21.27;40.32
61900;BME280;47853;55.890;37.664;2022-08-20T08:18:40;100440.06;;;21.14;39.40
61900;BME280;47853;55.890;37.664;2022-08-20T08:21:07;100452.41;;;21.49;39.20
61900;BME280;47853;55.890;37.664;2022-08-20T08:23:34;100458.94;;;21.80;38.53
61900;BME280;47853;55.890;37.664;2022-08-20T08:26:00;100448.38;;;22.68;36.61
61900;BME280;47853;55.890;37.664;2022-08-20T08:28:26;100453.78;;;23.50;35.91
61900;BME280;47853;55.890;37.664;2022-08-20T08:30:51;100439.00;;;22.89;35.07
61900;BME280;47853;55.890;37.664;2022-08-20T08:33:24;100427.66;;;23.55;35.62
61900;BME280;47853;55.890;37.664;2022-08-20T08:35:49;100451.59;;;24.19;34.45
61900;BME280;47853;55.890;37.664;2022-08-20T08:38:15;100453.25;;;23.90;34.00
61900;BME280;47853;55.890;37.664;2022-08-20T08:40:40;100453.31;;;23.71;34.54
61900;BME280;47853;55.890;37.664;2022-08-20T08:43:06;100435.56;;;23.01;34.64
61900;BME280;47853;55.890;37.664;2022-08-20T08:45:38;100444.13;;;22.54;34.05
61900;BME280;47853;55.890;37.664;2022-08-20T08:48:04;100446.56;;;22.30;35.31
61900;BME280;47853;55.890;37.664;2022-08-20T08:50:31;100444.00;;;22.67;35.45
61900;BME280;47853;55.890;37.664;2022-08-20T08:52:59;100438.50;;;22.99;35.34
61900;BME280;47853;55.890;37.664;2022-08-20T08:55:28;100442.09;;;23.68;34.80
61900;BME280;47853;55.890;37.664;2022-08-20T08:57:56;100444.41;;;23.64;33.85
61900;BME280;47853;55.890;37.664;2022-08-20T09:00:22;100436.75;;;23.05;34.40
61900;BME280;47853;55.890;37.664;2022-08-20T09:03:16;100448.88;;;22.58;33.92
61900;BME280;47853;55.890;37.664;2022-08-20T09:05:45;100450.00;;;22.44;34.28
61900;BME280;47853;55.890;37.664;2022-08-20T09:08:13;100417.28;;;22.20;34.50
61900;BME280;47853;55.890;37.664;2022-08-20T09:10:40;100421.78;;;22.01;34.45
61900;BME280;47853;55.890;37.664;2022-08-20T09:13:06;100434.09;;;21.97;34.57
61900;BME280;47853;55.890;37.664;2022-08-20T09:15:31;100433.78;;;21.80;34.90
61900;BME280;47853;55.890;37.664;2022-08-20T09:17:57;100453.75;;;21.79;35.00
61900;BME280;47853;55.890;37.664;2022-08-20T09:20:22;100445.34;;;21.41;35.59
61900;BME280;47853;55.890;37.664;2022-08-20T09:22:48;100449.34;;;21.39;35.04
61900;BME280;47853;55.890;37.664;2022-08-20T09:25:13;100455.97;;;21.36;35.22
61900;BME280;47853;55.890;37.664;2022-08-20T09:27:39;100450.22;;;21.19;35.73
61900;BME280;47853;55.890;37.664;2022-08-20T09:30:04;100411.03;;;21.03;35.57
61900;BME280;47853;55.890;37.664;2022-08-20T09:32:30;100473.41;;;21.40;35.23
61900;BME280;47853;55.890;37.664;2022-08-20T09:34:55;100475.75;;;21.30;35.32
61900;BME280;47853;55.890;37.664;2022-08-20T09:37:22;100459.63;;;21.03;35.48
61900;BME280;47853;55.890;37.664;2022-08-20T09:39:48;100461.47;;;21.03;35.50
61900;BME280;47853;55.890;37.664;2022-08-20T09:42:18;100461.06;;;20.99;35.90
61900;BME280;47853;55.890;37.664;2022-08-20T09:44:43;100467.09;;;20.74;35.93
61900;BME280;47853;55.890;37.664;2022-08-20T09:47:09;100477.28;;;20.85;36.86
61900;BME280;47853;55.890;37.664;2022-08-20T09:49:35;100475.63;;;20.78;37.31
61900;BME280;47853;55.890;37.664;2022-08-20T09:52:02;100493.84;;;20.76;36.45
61900;BME280;47853;55.890;37.664;2022-08-20T09:54:29;100484.09;;;20.54;36.40
61900;BME280;47853;55.890;37.664;2022-08-20T09:57:04;100460.63;;;20.28;36.53
61900;BME280;47853;55.890;37.664;2022-08-20T09:59:31;100476.41;;;20.31;37.83
61900;BME280;47853;55.890;37.664;2022-08-20T10:01:57;100488.22;;;20.30;38.80
61900;BME280;47853;55.890;37.664;2022-08-20T10:04:23;100493.59;;;20.17;39.90
61900;BME280;47853;55.890;37.664;2022-08-20T10:06:48;100492.59;;;20.24;40.38
61900;BME280;47853;55.890;37.664;2022-08-20T10:09:14;100465.88;;;19.67;42.17
61900;BME280;47853;55.890;37.664;2022-08-20T10:11:39;100487.69;;;19.86;42.20
61900;BME280;47853;55.890;37.664;2022-08-20T10:14:05;100467.53;;;19.68;42.27
61900;BME280;47853;55.890;37.664;2022-08-20T10:16:30;100486.94;;;19.50;41.38
61900;BME280;47853;55.890;37.664;2022-08-20T10:18:56;100477.81;;;19.58;42.47
61900;BME280;47853;55.890;37.664;2022-08-20T10:21:21;100467.69;;;19.60;42.68
61900;BME280;47853;55.890;37.664;2022-08-20T10:23:47;100450.25;;;19.56;43.64
61900;BME280;47853;55.890;37.664;2022-08-20T10:26:12;100460.00;;;19.57;43.91
61900;BME280;47853;55.890;37.664;2022-08-20T10:28:38;100456.50;;;19.63;43.16
61900;BME280;47853;55.890;37.664;2022-08-20T10:31:10;100421.66;;;19.55;45.23
61900;BME280;47853;55.890;37.664;2022-08-20T10:33:37;100418.25;;;19.26;46.32
61900;BME280;47853;55.890;37.664;2022-08-20T10:36:16;100460.19;;;19.49;44.94
61900;BME280;47853;55.890;37.664;2022-08-20T10:38:42;100464.13;;;19.53;45.66
61900;BME280;47853;55.890;37.664;2022-08-20T10:41:08;100456.03;;;19.46;46.03
61900;BME280;47853;55.890;37.664;2022-08-20T10:43:34;100451.31;;;19.62;45.85
61900;BME280;47853;55.890;37.664;2022-08-20T10:46:00;100442.97;;;19.50;45.88
61900;BME280;47853;55.890;37.664;2022-08-20T10:48:25;100466.50;;;19.76;46.86
61900;BME280;47853;55.890;37.664;2022-08-20T10:50:51;100420.78;;;19.41;46.66
61900;BME280;47853;55.890;37.664;2022-08-20T10:53:16;100426.72;;;19.30;47.71
61900;BME280;47853;55.890;37.664;2022-08-20T10:55:42;100451.44;;;19.40;47.14
61900;BME280;47853;55.890;37.664;2022-08-20T10:58:08;100466.06;;;19.66;46.23
61900;BME280;47853;55.890;37.664;2022-08-20T11:00:34;100459.25;;;19.77;46.78
61900;BME280;47853;55.890;37.664;2022-08-20T11:03:00;100443.63;;;19.52;46.14
61900;BME280;47853;55.890;37.664;2022-08-20T11:05:26;100471.34;;;19.94;46.84
61900;BME280;47853;55.890;37.664;2022-08-20T11:07:51;100447.03;;;19.81;46.00
61900;BME280;47853;55.890;37.664;2022-08-20T11:10:17;100457.00;;;19.87;46.19
61900;BME280;47853;55.890;37.664;2022-08-20T11:12:42;100458.66;;;19.88;46.35
61900;BME280;47853;55.890;37.664;2022-08-20T11:15:09;100447.31;;;19.93;46.63
61900;BME280;47853;55.890;37.664;2022-08-20T11:17:36;100457.63;;;19.89;46.57
61900;BME280;47853;55.890;37.664;2022-08-20T11:20:04;100438.81;;;19.96;46.30
61900;BME280;47853;55.890;37.664;2022-08-20T11:22:30;100432.19;;;19.92;46.49
61900;BME280;47853;55.890;37.664;2022-08-20T11:24:55;100425.34;;;19.96;46.37
61900;BME280;47853;55.890;37.664;2022-08-20T11:27:25;100442.91;;;19.85;45.81
61900;BME280;47853;55.890;37.664;2022-08-20T11:29:51;100424.72;;;20.00;45.45
61900;BME280;47853;55.890;37.664;2022-08-20T11:32:17;100439.06;;;20.14;45.48
61900;BME280;47853;55.890;37.664;2022-08-20T11:34:43;100422.47;;;20.24;44.71
61900;BME280;47853;55.890;37.664;2022-08-20T11:37:09;100431.59;;;20.30;44.73
61900;BME280;47853;55.890;37.664;2022-08-20T11:39:34;100431.81;;;20.35;44.13
61900;BME280;47853;55.890;37.664;2022-08-20T11:42:00;100432.66;;;20.42;43.99
61900;BME280;47853;55.890;37.664;2022-08-20T11:44:25;100394.88;;;20.16;44.31
61900;BME280;47853;55.890;37.664;2022-08-20T11:46:50;100424.97;;;20.53;43.84
61900;BME280;47853;55.890;37.664;2022-08-20T11:49:16;100423.28;;;20.45;43.83
61900;BME280;47853;55.890;37.664;2022-08-20T11:51:41;100416.88;;;20.33;43.37
61900;BME280;47853;55.890;37.664;2022-08-20T11:54:06;100392.38;;;20.48;43.05
61900;BME280;47853;55.890;37.664;2022-08-20T11:56:32;100415.84;;;20.34;42.92
61900;BME280;47853;55.890;37.664;2022-08-20T11:58:57;100397.13;;;20.52;43.00
61900;BME280;47853;55.890;37.664;2022-08-20T12:01:23;100400.88;;;20.65;43.22
61900;BME280;47853;55.890;37.664;2022-08-20T12:03:49;100391.56;;;20.54;42.49
61900;BME280;47853;55.890;37.664;2022-08-20T12:06:14;100405.47;;;20.51;42.52
61900;BME280;47853;55.890;37.664;2022-08-20T12:08:39;100397.16;;;20.59;42.07
61900;BME280;47853;55.890;37.664;2022-08-20T12:11:05;100392.38;;;20.61;42.38
61900;BME280;47853;55.890;37.664;2022-08-20T12:13:33;100382.03;;;20.45;41.57
61900;BME280;47853;55.890;37.664;2022-08-20T12:15:59;100369.13;;;20.60;41.85
61900;BME280;47853;55.890;37.664;2022-08-20T12:18:24;100349.22;;;20.48;41.19
61900;BME280;47853;55.890;37.664;2022-08-20T12:20:50;100365.41;;;20.41;40.22
61900;BME280;47853;55.890;37.664;2022-08-20T12:23:15;100350.25;;;20.40;40.56
61900;BME280;47853;55.890;37.664;2022-08-20T12:25:41;100373.91;;;20.51;40.71
61900;BME280;47853;55.890;37.664;2022-08-20T12:28:06;100358.16;;;20.28;39.96
61900;BME280;47853;55.890;37.664;2022-08-20T12:30:33;100356.06;;;20.30;40.29
61900;BME280;47853;55.890;37.664;2022-08-20T12:32:59;100371.03;;;20.39;39.65
61900;BME280;47853;55.890;37.664;2022-08-20T12:35:25;100371.66;;;20.41;39.22
61900;BME280;47853;55.890;37.664;2022-08-20T12:37:51;100354.41;;;20.49;39.05
61900;BME280;47853;55.890;37.664;2022-08-20T12:40:23;100372.44;;;20.62;38.03
61900;BME280;47853;55.890;37.664;2022-08-20T12:42:49;100361.66;;;20.69;38.26
61900;BME280;47853;55.890;37.664;2022-08-20T12:45:15;100366.41;;;20.67;38.76